createdAt,value
2022-08-09T00:01:52.814Z,37.55
2022-08-09T00:04:24.965Z,37.41
2022-08-09T00:07:03.109Z,35.77
2022-08-09T00:09:37.087Z,37.75
2022-08-09T00:12:05.941Z,38.26
2022-08-09T00:14:38.299Z,38.61
2022-08-09T00:17:07.584Z,38.55
2022-08-09T00:19:36.399Z,38.60
2022-08-09T00:22:05.593Z,38.78
2022-08-09T00:24:34.333Z,38.87
2022-08-09T00:27:03.076Z,39.20
2022-08-09T00:29:39.529Z,38.93
2022-08-09T00:32:26.713Z,38.97
2022-08-09T00:34:56.606Z,39.00
2022-08-09T00:37:27.327Z,38.74
2022-08-09T00:40:13.837Z,39.00
2022-08-09T00:44:14.504Z,39.13
2022-08-09T00:45:35.867Z,38.91
2022-08-09T00:48:06.022Z,39.15
2022-08-09T00:50:37.882Z,39.38
2022-08-09T00:53:10.540Z,39.55
2022-08-09T00:56:04.669Z,39.36
2022-08-09T00:58:31.787Z,39.57
2022-08-09T01:01:00.050Z,39.23
2022-08-09T01:03:46.229Z,39.26
2022-08-09T01:06:19.942Z,39.38
2022-08-09T01:08:57.027Z,39.62
2022-08-09T01:11:53.308Z,39.15
2022-08-09T01:14:33.002Z,39.20
2022-08-09T01:17:34.132Z,38.60
2022-08-09T01:20:25.449Z,39.30
2022-08-09T01:23:12.277Z,39.45
2022-08-09T01:26:05.498Z,39.29
2022-08-09T01:28:38.384Z,39.20
2022-08-09T01:31:12.131Z,39.82
2022-08-09T01:34:04.854Z,39.58
2022-08-09T01:36:40.675Z,39.78
2022-08-09T01:39:10.296Z,39.42
2022-08-09T01:41:53.730Z,39.56
2022-08-09T01:44:29.537Z,39.32
2022-08-09T01:47:01.369Z,40.08
2022-08-09T01:49:39.071Z,40.13
2022-08-09T01:52:14.508Z,40.12
2022-08-09T01:54:48.535Z,40.21
2022-08-09T01:57:29.499Z,40.01
2022-08-09T02:00:35.819Z,39.97
2022-08-09T02:03:00.219Z,40.00
2022-08-09T02:05:37.626Z,40.25
2022-08-09T02:08:39.946Z,40.39
2022-08-09T02:11:03.286Z,40.23
2022-08-09T02:14:09.370Z,39.77
2022-08-09T02:16:59.633Z,40.03
2022-08-09T02:19:38.656Z,40.00
2022-08-09T02:22:31.785Z,39.86
2022-08-09T02:25:10.524Z,39.84
2022-08-09T02:28:00.644Z,40.15
2022-08-09T02:30:59.139Z,39.90
2022-08-09T02:33:37.673Z,40.25
2022-08-09T02:36:39.701Z,40.17
2022-08-09T02:39:33.928Z,40.71
2022-08-09T02:42:13.573Z,41.17
2022-08-09T02:44:53.018Z,41.12
2022-08-09T02:47:24.378Z,40.76
2022-08-09T02:50:01.869Z,41.11
2022-08-09T02:52:45.367Z,41.46
2022-08-09T02:55:20.685Z,41.20
2022-08-09T02:58:00.001Z,41.00
2022-08-09T03:00:58.025Z,41.43
2022-08-09T03:03:59.597Z,41.31
2022-08-09T03:06:18.975Z,41.09
2022-08-09T03:08:52.420Z,41.23
2022-08-09T03:12:04.739Z,41.10
2022-08-09T03:14:12.908Z,40.76
2022-08-09T03:16:47.428Z,40.97
2022-08-09T03:19:52.713Z,41.25
2022-08-09T03:22:12.222Z,40.99
2022-08-09T03:25:06.492Z,40.83
2022-08-09T03:27:45.953Z,40.45
2022-08-09T03:30:29.759Z,40.97
2022-08-09T03:33:12.708Z,40.68
2022-08-09T03:36:13.805Z,40.48
2022-08-09T03:38:43.132Z,40.55
2022-08-09T03:41:15.367Z,40.81
2022-08-09T03:44:03.169Z,40.64
2022-08-09T03:46:35.839Z,40.87
2022-08-09T03:49:07.865Z,40.74
2022-08-09T03:51:58.601Z,40.51
2022-08-09T03:54:35.114Z,40.64
2022-08-09T03:57:18.321Z,40.04
2022-08-09T03:59:54.374Z,40.01
2022-08-09T04:02:30.272Z,39.91
2022-08-09T04:05:06.362Z,39.26
2022-08-09T04:07:52.476Z,39.66
2022-08-09T04:10:29.117Z,39.35
2022-08-09T04:13:04.484Z,39.32
2022-08-09T04:16:18.814Z,39.25
2022-08-09T04:18:22.087Z,39.08
2022-08-09T04:20:51.776Z,38.91
2022-08-09T04:23:25.651Z,38.72
2022-08-09T04:25:55.832Z,38.66
2022-08-09T04:28:34.145Z,38.66
2022-08-09T04:31:08.093Z,38.70
2022-08-09T04:33:53.082Z,38.86
2022-08-09T04:36:31.127Z,38.53
2022-08-09T04:39:02.482Z,38.36
2022-08-09T04:41:33.786Z,38.00
2022-08-09T04:44:14.445Z,37.99
2022-08-09T04:46:57.700Z,37.85
2022-08-09T04:49:53.792Z,37.44
2022-08-09T04:52:27.508Z,36.97
2022-08-09T04:55:02.480Z,36.79
2022-08-09T04:57:58.938Z,36.70
2022-08-09T05:00:23.754Z,36.44
2022-08-09T05:02:52.812Z,35.89
2022-08-09T05:05:32.024Z,35.70
2022-08-09T05:08:14.828Z,35.34
2022-08-09T05:10:44.431Z,35.22
2022-08-09T05:13:14.411Z,34.91
2022-08-09T05:15:47.906Z,34.95
2022-08-09T05:18:39.103Z,34.42
2022-08-09T05:21:13.479Z,34.04
2022-08-09T05:24:00.322Z,33.72
2022-08-09T05:26:37.065Z,33.57
2022-08-09T05:29:21.624Z,33.37
2022-08-09T05:31:56.761Z,33.46
2022-08-09T05:34:33.314Z,33.21
2022-08-09T05:37:06.223Z,33.03
2022-08-09T05:39:43.188Z,32.41
2022-08-09T05:42:21.019Z,32.62
2022-08-09T05:45:02.220Z,32.08
2022-08-09T05:47:33.225Z,31.90
2022-08-09T05:50:31.139Z,31.58
2022-08-09T05:52:53.502Z,30.93
2022-08-09T05:55:24.122Z,31.02
2022-08-09T05:57:56.493Z,31.15
2022-08-09T06:00:28.952Z,30.61
2022-08-09T06:03:00.427Z,29.92
2022-08-09T06:05:57.100Z,30.05
2022-08-09T06:08:24.583Z,29.40
2022-08-09T06:10:56.146Z,29.66
2022-08-09T06:13:28.268Z,29.65
2022-08-09T06:15:56.691Z,29.27
2022-08-09T06:18:25.887Z,28.48
2022-08-09T06:20:58.471Z,28.70
2022-08-09T06:23:55.610Z,28.22
2022-08-09T06:26:21.177Z,28.24
2022-08-09T06:29:00.611Z,28.17
2022-08-09T06:31:39.680Z,27.89
2022-08-09T06:34:25.970Z,27.31
2022-08-09T06:36:59.430Z,27.17
2022-08-09T06:39:49.320Z,26.40
2022-08-09T06:42:24.389Z,25.88
2022-08-09T06:44:54.537Z,25.47
2022-08-09T06:47:24.030Z,25.90
2022-08-09T06:50:13.570Z,25.25
2022-08-09T06:52:47.297Z,25.31
2022-08-09T06:55:22.325Z,24.88
2022-08-09T06:58:02.676Z,24.86
2022-08-09T07:00:50.245Z,23.51
2022-08-09T07:03:28.378Z,23.45
2022-08-09T07:06:03.709Z,23.49
2022-08-09T07:08:37.056Z,22.43
2022-08-09T07:11:06.936Z,22.81
2022-08-09T07:13:45.433Z,22.51
2022-08-09T07:16:41.998Z,22.73
2022-08-09T07:19:23.087Z,22.14
2022-08-09T07:21:57.767Z,21.83
2022-08-09T07:24:40.313Z,21.56
2022-08-09T07:27:34.246Z,21.05
2022-08-09T07:30:01.117Z,20.32
2022-08-09T07:32:34.210Z,20.36
2022-08-09T07:35:10.473Z,19.96
2022-08-09T07:37:46.159Z,19.87
2022-08-09T07:40:20.570Z,20.03
2022-08-09T07:42:57.932Z,20.21
2022-08-09T07:45:38.114Z,20.26
2022-08-09T07:48:25.481Z,19.88
2022-08-09T07:51:03.076Z,19.47
2022-08-09T07:54:04.956Z,19.21
2022-08-09T07:56:38.820Z,19.45
2022-08-09T07:59:21.179Z,18.95
2022-08-09T08:01:56.209Z,19.19
2022-08-09T08:04:31.383Z,18.53
2022-08-09T08:07:15.598Z,18.64
2022-08-09T08:09:55.096Z,18.23
2022-08-09T08:12:42.525Z,18.07
2022-08-09T08:15:16.458Z,18.26
2022-08-09T08:17:55.128Z,18.18
2022-08-09T08:20:32.349Z,16.91
2022-08-09T08:23:16.069Z,17.29
2022-08-09T08:25:50.100Z,17.04
2022-08-09T08:28:31.953Z,16.51
2022-08-09T08:31:14.060Z,16.37
2022-08-09T08:33:52.490Z,15.93
2022-08-09T08:36:29.109Z,15.69
2022-08-09T08:39:00.569Z,15.63
2022-08-09T08:41:51.097Z,16.42
2022-08-09T08:44:27.010Z,15.83
2022-08-09T08:47:05.252Z,15.22
2022-08-09T08:49:48.483Z,15.79
2022-08-09T08:55:23.465Z,15.10
2022-08-09T08:57:56.767Z,14.52
2022-08-09T09:00:34.376Z,13.97
2022-08-09T09:03:12.070Z,13.47
2022-08-09T09:06:00.116Z,12.14
2022-08-09T09:08:40.499Z,11.78
2022-08-09T09:11:17.822Z,10.41
2022-08-09T09:13:55.384Z,9.86
2022-08-09T09:16:34.270Z,9.34
2022-08-09T09:22:05.063Z,7.94
2022-08-09T09:24:39.686Z,8.21
2022-08-09T09:28:04.300Z,8.04
2022-08-09T09:30:26.219Z,7.65
2022-08-09T09:33:15.366Z,7.39
2022-08-09T09:36:01.401Z,8.09
2022-08-09T09:38:52.933Z,8.05
2022-08-09T09:41:25.038Z,6.97
2022-08-09T09:44:10.307Z,6.26
2022-08-09T09:46:51.715Z,6.41
2022-08-09T09:49:32.289Z,5.64
2022-08-09T09:52:33.378Z,5.09
2022-08-09T09:55:16.719Z,4.89
2022-08-09T09:58:17.318Z,5.12
2022-08-09T10:00:54.045Z,5.37
2022-08-09T10:03:44.494Z,5.93
2022-08-09T10:06:14.355Z,5.54
2022-08-09T10:08:54.857Z,4.95
2022-08-09T10:12:00.164Z,4.76
2022-08-09T10:14:27.677Z,4.77
2022-08-09T10:17:23.982Z,5.13
2022-08-09T10:19:52.069Z,4.09
2022-08-09T10:22:37.383Z,4.36
2022-08-09T10:25:12.562Z,4.69
2022-08-09T10:27:57.308Z,5.12
2022-08-09T10:34:07.879Z,5.54
2022-08-09T10:36:09.462Z,5.88
2022-08-09T10:38:55.851Z,5.78
2022-08-09T10:41:28.246Z,6.06
2022-08-09T10:44:00.920Z,6.54
2022-08-09T10:47:01.030Z,6.36
2022-08-09T10:49:57.298Z,6.44
2022-08-09T10:53:24.260Z,5.71
2022-08-09T10:56:24.356Z,5.94
2022-08-09T10:58:55.467Z,6.00
2022-08-09T11:03:14.213Z,5.45
2022-08-09T11:04:31.734Z,5.77
2022-08-09T11:07:04.246Z,5.28
2022-08-09T11:09:38.933Z,5.68
2022-08-09T11:12:17.751Z,5.91
2022-08-09T11:14:57.651Z,6.77
2022-08-09T11:17:26.643Z,6.49
2022-08-09T11:20:22.295Z,6.20
2022-08-09T11:22:56.625Z,6.07
2022-08-09T11:25:44.853Z,6.38
2022-08-09T11:28:34.047Z,5.94
2022-08-09T11:31:49.178Z,6.09
2022-08-09T11:34:35.571Z,5.90
2022-08-09T11:37:07.619Z,6.11
2022-08-09T11:40:03.885Z,5.89
2022-08-09T11:42:43.632Z,5.81
2022-08-09T11:45:37.877Z,5.86
2022-08-09T11:48:31.830Z,5.47
2022-08-09T11:52:48.768Z,6.31
2022-08-09T11:54:27.500Z,6.10
2022-08-09T11:57:55.529Z,6.05
2022-08-09T12:00:30.810Z,5.90
2022-08-09T12:03:09.964Z,6.12
2022-08-09T12:05:51.211Z,5.92
2022-08-09T12:08:22.260Z,5.93
2022-08-09T12:10:55.671Z,5.41
2022-08-09T12:14:10.681Z,5.45
2022-08-09T12:16:38.179Z,6.02
2022-08-09T12:19:12.259Z,6.42
2022-08-09T12:21:51.668Z,6.82
2022-08-09T12:24:24.350Z,7.30
2022-08-09T12:28:58.818Z,6.95
2022-08-09T12:30:01.973Z,7.49
2022-08-09T12:32:45.149Z,7.43
2022-08-09T12:35:21.589Z,7.93
2022-08-09T12:37:53.611Z,8.47
2022-08-09T12:40:27.273Z,8.88
2022-08-09T12:42:56.470Z,8.72
2022-08-09T12:45:34.507Z,8.34
2022-08-09T12:48:19.834Z,7.22
2022-08-09T12:50:50.552Z,6.79
2022-08-09T12:53:33.430Z,6.98
2022-08-09T12:56:15.442Z,6.43
2022-08-09T12:59:11.782Z,6.02
2022-08-09T13:02:07.278Z,6.11
2022-08-09T13:04:40.372Z,6.37
2022-08-09T13:07:19.714Z,6.39
2022-08-09T13:10:05.195Z,6.37
2022-08-09T13:12:34.993Z,6.45
2022-08-09T13:15:09.980Z,5.82
2022-08-09T13:18:03.147Z,6.45
2022-08-09T13:21:04.536Z,6.00
2022-08-09T13:24:17.507Z,6.83
2022-08-09T13:26:36.937Z,6.12
2022-08-09T13:29:07.592Z,6.88
2022-08-09T13:32:16.744Z,7.62
2022-08-09T13:34:30.421Z,8.22
2022-08-09T13:37:05.432Z,8.59
2022-08-09T13:41:46.477Z,8.84
2022-08-09T13:42:28.810Z,8.11
2022-08-09T13:45:01.868Z,8.62
2022-08-09T13:47:49.041Z,8.55
2022-08-09T13:50:30.653Z,8.80
2022-08-09T13:52:59.932Z,9.38
2022-08-09T13:55:29.083Z,9.76
2022-08-09T13:57:59.564Z,10.02
2022-08-09T14:00:29.641Z,9.46
2022-08-09T14:03:17.142Z,9.95
2022-08-09T14:06:00.618Z,9.33
2022-08-09T14:08:32.299Z,9.02
2022-08-09T14:11:02.355Z,9.55
2022-08-09T14:14:22.623Z,8.88
2022-08-09T14:16:28.811Z,9.01
2022-08-09T14:18:58.428Z,8.96
2022-08-09T14:21:29.719Z,8.94
2022-08-09T14:24:05.461Z,9.07
2022-08-09T14:26:39.756Z,9.18
2022-08-09T14:29:25.848Z,8.90
2022-08-09T14:32:06.164Z,8.74
2022-08-09T14:34:41.402Z,9.55
2022-08-09T14:37:10.308Z,9.39
2022-08-09T14:39:47.964Z,9.60
2022-08-09T14:42:30.387Z,10.13
2022-08-09T14:46:40.083Z,10.40
2022-08-09T14:47:58.390Z,10.49
2022-08-09T14:50:32.785Z,11.03
2022-08-09T14:53:06.256Z,11.51
2022-08-09T14:55:42.096Z,11.34
2022-08-09T14:58:12.355Z,11.46
2022-08-09T15:00:42.514Z,12.00
2022-08-09T15:03:20.341Z,11.71
2022-08-09T15:05:54.821Z,11.96
2022-08-09T15:08:30.463Z,12.01
2022-08-09T15:11:01.304Z,12.24
2022-08-09T15:13:56.531Z,12.25
2022-08-09T15:16:23.898Z,12.57
2022-08-09T15:19:05.878Z,12.92
2022-08-09T15:21:58.781Z,12.71
2022-08-09T15:24:30.810Z,12.78
2022-08-09T15:26:59.440Z,12.59
2022-08-09T15:30:48.265Z,12.86
2022-08-09T15:32:38.971Z,12.53
2022-08-09T15:35:18.239Z,12.43
2022-08-09T15:38:10.932Z,12.57
2022-08-09T15:40:43.394Z,12.26
2022-08-09T15:43:14.341Z,12.72
2022-08-09T15:46:07.242Z,12.31
2022-08-09T15:48:32.520Z,12.34
2022-08-09T15:51:01.753Z,12.68
2022-08-09T15:54:05.792Z,12.56
2022-08-09T15:56:21.472Z,12.87
2022-08-09T15:59:03.266Z,13.05
2022-08-09T16:01:35.441Z,13.27
2022-08-09T16:04:04.737Z,13.61
2022-08-09T16:06:37.692Z,13.15
2022-08-09T16:09:07.117Z,13.48
2022-08-09T16:11:35.325Z,13.73
2022-08-09T16:14:07.995Z,13.88
2022-08-09T16:16:39.017Z,15.83
2022-08-09T16:19:13.414Z,17.78
2022-08-09T16:21:48.770Z,18.69
2022-08-09T16:24:33.251Z,19.19
2022-08-09T16:27:05.198Z,19.34
2022-08-09T16:29:37.411Z,19.66
2022-08-09T16:32:19.795Z,19.87
2022-08-09T16:34:58.451Z,20.46
2022-08-09T16:37:53.193Z,20.26
2022-08-09T16:40:20.406Z,20.33
2022-08-09T16:42:50.129Z,20.39
2022-08-09T16:45:20.285Z,18.83
2022-08-09T16:48:38.162Z,20.37
2022-08-09T16:50:39.987Z,20.81
2022-08-09T16:53:18.397Z,21.21
2022-08-09T16:56:00.558Z,21.64
2022-08-09T16:58:35.878Z,21.91
2022-08-09T17:01:06.127Z,21.96
2022-08-09T17:03:36.603Z,22.44
2022-08-09T17:06:28.407Z,20.87
2022-08-09T17:09:00.148Z,22.60
2022-08-09T17:11:41.759Z,22.89
2022-08-09T17:14:26.627Z,23.07
2022-08-09T17:17:01.353Z,23.26
2022-08-09T17:19:47.542Z,23.60
2022-08-09T17:22:31.103Z,24.00
2022-08-09T17:25:04.835Z,23.92
2022-08-09T17:27:49.435Z,24.10
2022-08-09T17:30:29.207Z,24.33
2022-08-09T17:33:05.567Z,24.33
2022-08-09T17:35:50.785Z,24.48
2022-08-09T17:38:32.553Z,24.62
2022-08-09T17:41:06.686Z,24.73
2022-08-09T17:43:37.218Z,24.67
2022-08-09T17:46:08.782Z,24.74
2022-08-09T17:48:46.607Z,24.82
2022-08-09T17:51:22.328Z,24.85
2022-08-09T17:53:55.481Z,24.84
2022-08-09T17:56:29.089Z,25.15
2022-08-09T17:59:03.068Z,25.19
2022-08-09T18:01:58.018Z,25.55
2022-08-09T18:04:21.558Z,25.67
2022-08-09T18:06:54.890Z,25.67
2022-08-09T18:09:40.466Z,26.06
2022-08-09T18:12:19.549Z,26.21
2022-08-09T18:14:55.185Z,26.67
2022-08-09T18:17:27.046Z,26.90
2022-08-09T18:20:55.246Z,26.76
2022-08-09T18:23:07.271Z,26.85
2022-08-09T18:25:51.105Z,27.01
2022-08-09T18:30:42.911Z,27.00
2022-08-09T18:31:24.730Z,27.26
2022-08-09T18:34:05.465Z,27.71
2022-08-09T18:36:36.287Z,27.91
2022-08-09T18:39:15.967Z,28.06
2022-08-09T18:41:53.197Z,28.20
2022-08-09T18:44:25.421Z,28.34
2022-08-09T18:47:07.337Z,28.63
2022-08-09T18:49:46.264Z,29.06
2022-08-09T18:52:18.715Z,28.99
2022-08-09T18:54:54.800Z,29.21
2022-08-09T18:57:23.964Z,29.69
2022-08-09T19:00:11.335Z,29.67
2022-08-09T19:02:45.338Z,29.55
2022-08-09T19:05:28.314Z,29.80
2022-08-09T19:08:10.463Z,30.15
2022-08-09T19:10:40.724Z,30.19
2022-08-09T19:13:22.936Z,30.41
2022-08-09T19:16:00.512Z,30.75
2022-08-09T19:18:33.886Z,31.01
2022-08-09T19:21:10.593Z,30.94
2022-08-09T19:24:32.673Z,31.47
2022-08-09T19:26:34.663Z,31.58
2022-08-09T19:29:15.364Z,31.95
2022-08-09T19:31:51.211Z,31.57
2022-08-09T19:34:23.052Z,32.04
2022-08-09T19:36:58.035Z,32.10
2022-08-09T19:39:42.851Z,32.14
2022-08-09T19:42:14.436Z,32.82
2022-08-09T19:44:43.937Z,33.28
2022-08-09T19:47:22.648Z,33.24
2022-08-09T19:50:09.025Z,33.43
2022-08-09T19:52:51.840Z,33.54
2022-08-09T19:55:30.625Z,33.97
2022-08-09T19:58:16.429Z,33.84
2022-08-09T20:00:46.870Z,33.95
2022-08-09T20:04:17.067Z,34.51
2022-08-09T20:06:31.283Z,34.81
2022-08-09T20:09:00.168Z,34.77
2022-08-09T20:11:43.275Z,34.96
2022-08-09T20:14:18.003Z,34.89
2022-08-09T20:16:53.545Z,34.88
2022-08-09T20:19:48.704Z,34.58
2022-08-09T20:22:14.485Z,34.97
2022-08-09T20:24:53.429Z,35.31
2022-08-09T20:27:23.357Z,35.66
2022-08-09T20:29:51.704Z,35.80
2022-08-09T20:32:30.483Z,35.79
2022-08-09T20:35:08.961Z,35.78
2022-08-09T20:38:19.096Z,36.13
2022-08-09T20:40:28.686Z,36.15
2022-08-09T20:43:11.907Z,36.57
2022-08-09T20:45:59.897Z,36.55
2022-08-09T20:48:31.535Z,36.61
2022-08-09T20:51:01.373Z,36.54
2022-08-09T20:53:36.199Z,36.93
2022-08-09T20:56:20.698Z,37.07
2022-08-09T20:58:54.693Z,37.22
2022-08-09T21:01:35.094Z,37.24
2022-08-09T21:05:51.132Z,37.59
2022-08-09T21:07:12.748Z,37.81
2022-08-09T21:09:55.276Z,37.51
2022-08-09T21:12:32.232Z,37.55
2022-08-09T21:15:03.058Z,37.76
2022-08-09T21:18:23.758Z,38.34
2022-08-09T21:20:25.766Z,37.70
2022-08-09T21:22:55.133Z,38.33
2022-08-09T21:25:44.207Z,38.65
2022-08-09T21:28:33.730Z,38.79
2022-08-09T21:31:22.443Z,38.79
2022-08-09T21:33:53.246Z,38.83
2022-08-09T21:36:28.788Z,38.86
2022-08-09T21:38:59.514Z,39.25
2022-08-09T21:42:00.305Z,39.48
2022-08-09T21:44:32.737Z,39.65
2022-08-09T21:47:09.297Z,39.23
2022-08-09T21:49:42.596Z,39.42
2022-08-09T21:52:17.530Z,39.50
2022-08-09T21:54:59.422Z,39.63
2022-08-09T21:57:58.601Z,39.58
2022-08-09T22:00:31.857Z,39.58
2022-08-09T22:03:19.666Z,39.64
2022-08-09T22:05:58.023Z,39.61
2022-08-09T22:08:26.474Z,39.93
2022-08-09T22:11:48.809Z,40.00
2022-08-09T22:13:45.221Z,40.02
2022-08-09T22:16:13.610Z,40.50
2022-08-09T22:18:53.157Z,40.68
2022-08-09T22:21:44.635Z,40.23
2022-08-09T22:24:17.126Z,40.39
2022-08-09T22:26:51.187Z,40.56
2022-08-09T22:29:28.400Z,40.42
2022-08-09T22:32:03.295Z,40.82
2022-08-09T22:34:31.582Z,40.99
2022-08-09T22:37:00.679Z,40.62
2022-08-09T22:39:55.951Z,38.37
2022-08-09T22:42:22.382Z,40.43
2022-08-09T22:48:05.121Z,41.10
2022-08-09T22:48:14.136Z,41.02
2022-08-09T22:50:33.470Z,41.15
2022-08-09T22:53:03.588Z,41.46
2022-08-09T22:56:05.983Z,41.38
2022-08-09T22:58:32.841Z,41.18
2022-08-09T23:01:05.399Z,41.27
2022-08-09T23:04:04.777Z,41.72
2022-08-09T23:06:34.697Z,41.47
2022-08-09T23:09:07.652Z,41.14
2022-08-09T23:11:36.333Z,41.27
2022-08-09T23:14:09.760Z,41.26
2022-08-09T23:16:39.057Z,41.38
2022-08-09T23:19:07.571Z,41.23
2022-08-09T23:21:36.310Z,41.58
2022-08-09T23:24:07.715Z,41.64
2022-08-09T23:26:37.576Z,41.46
2022-08-09T23:29:14.243Z,41.69
2022-08-09T23:31:43.028Z,41.36
2022-08-09T23:34:11.416Z,41.67
2022-08-09T23:36:39.879Z,42.07
2022-08-09T23:39:08.646Z,42.00
2022-08-09T23:41:37.329Z,42.16
2022-08-09T23:44:05.975Z,41.62
2022-08-09T23:46:34.931Z,42.34
2022-08-09T23:49:04.017Z,42.43
2022-08-09T23:51:32.522Z,42.65
2022-08-09T23:54:02.428Z,42.64
2022-08-09T23:56:40.005Z,42.43
2022-08-09T23:59:22.294Z,42.58
